sensor_id;sensor_type;location;lat;lon;timestamp;pressure;altitude;pressure_sealevel;temperature;humidity
14885;BME280;7534;50.762;7.000;2022-08-18T00:01:16;151504.16;;;20.44;79.01
14885;BME280;7534;50.762;7.000;2022-08-18T00:03:45;151506.78;;;20.45;79.06
14885;BME280;7534;50.762;7.000;2022-08-18T00:06:11;151480.44;;;20.35;79.33
14885;BME280;7534;50.762;7.000;2022-08-18T00:08:37;151496.25;;;20.41;79.54
14885;BME280;7534;50.762;7.000;2022-08-18T00:11:04;151469.81;;;20.31;79.88
14885;BME280;7534;50.762;7.000;2022-08-18T00:13:30;151432.88;;;20.16;79.69
14885;BME280;7534;50.762;7.000;2022-08-18T00:15:56;151434.19;;;20.17;80.13
14885;BME280;7534;50.762;7.000;2022-08-18T00:18:22;151480.44;;;20.35;80.06
14885;BME280;7534;50.762;7.000;2022-08-18T00:20:48;151454.00;;;20.25;80.04
14885;BME280;7534;50.762;7.000;2022-08-18T00:23:13;151440.75;;;20.19;80.62
14885;BME280;7534;50.762;7.000;2022-08-18T00:25:39;151426.28;;;20.14;80.92
14885;BME280;7534;50.762;7.000;2022-08-18T00:28:05;151438.16;;;20.18;81.14
14885;BME280;7534;50.762;7.000;2022-08-18T00:30:32;151388.03;;;19.99;82.03
14885;BME280;7534;50.762;7.000;2022-08-18T00:32:59;151343.16;;;19.82;82.31
14885;BME280;7534;50.762;7.000;2022-08-18T00:35:33;151385.38;;;19.98;82.72
14885;BME280;7534;50.762;7.000;2022-08-18T00:38:03;151401.19;;;20.04;82.89
14885;BME280;7534;50.762;7.000;2022-08-18T00:40:37;151370.88;;;19.93;83.63
14885;BME280;7534;50.762;7.000;2022-08-18T00:43:06;151370.88;;;19.93;84.09
14885;BME280;7534;50.762;7.000;2022-08-18T00:45:41;151327.38;;;19.76;84.39
14885;BME280;7534;50.762;7.000;2022-08-18T00:48:11;151348.47;;;19.84;84.70
14885;BME280;7534;50.762;7.000;2022-08-18T00:50:57;151353.75;;;19.86;84.58
14885;BME280;7534;50.762;7.000;2022-08-18T00:53:32;151320.75;;;19.73;84.12
14885;BME280;7534;50.762;7.000;2022-08-18T00:56:06;151351.09;;;19.85;84.61
14885;BME280;7534;50.762;7.000;2022-08-18T00:58:41;151351.09;;;19.85;84.70
14885;BME280;7534;50.762;7.000;2022-08-18T01:01:10;151310.22;;;19.69;85.39
14885;BME280;7534;50.762;7.000;2022-08-18T01:03:38;151281.19;;;19.58;85.37
14885;BME280;7534;50.762;7.000;2022-08-18T01:06:21;151298.34;;;19.65;86.05
14885;BME280;7534;50.762;7.000;2022-08-18T01:08:49;151315.47;;;19.71;86.07
14885;BME280;7534;50.762;7.000;2022-08-18T01:11:14;151294.38;;;19.63;86.13
14885;BME280;7534;50.762;7.000;2022-08-18T01:13:41;151282.53;;;19.59;86.36
14885;BME280;7534;50.762;7.000;2022-08-18T01:16:08;151282.53;;;19.59;86.86
14885;BME280;7534;50.762;7.000;2022-08-18T01:18:53;151266.72;;;19.53;87.49
14885;BME280;7534;50.762;7.000;2022-08-18T01:21:46;151199.41;;;19.27;88.20
14885;BME280;7534;50.762;7.000;2022-08-18T01:24:18;151264.06;;;19.52;88.24
14885;BME280;7534;50.762;7.000;2022-08-18T01:26:46;151225.78;;;19.37;88.42
14885;BME280;7534;50.762;7.000;2022-08-18T01:29:18;151216.53;;;19.33;88.28
14885;BME280;7534;50.762;7.000;2022-08-18T01:31:51;151224.47;;;19.36;88.36
14885;BME280;7534;50.762;7.000;2022-08-18T01:34:22;151246.88;;;19.45;88.40
14885;BME280;7534;50.762;7.000;2022-08-18T01:36:50;151219.19;;;19.34;89.37
14885;BME280;7534;50.762;7.000;2022-08-18T01:39:17;151233.66;;;19.40;89.11
14885;BME280;7534;50.762;7.000;2022-08-18T01:41:43;151216.53;;;19.33;89.65
14885;BME280;7534;50.762;7.000;2022-08-18T01:44:08;151134.81;;;19.02;90.58
14885;BME280;7534;50.762;7.000;2022-08-18T01:46:38;151162.53;;;19.13;90.56
14885;BME280;7534;50.762;7.000;2022-08-18T01:49:07;151207.28;;;19.30;89.88
14885;BME280;7534;50.762;7.000;2022-08-18T01:51:34;151182.28;;;19.20;90.17
14885;BME280;7534;50.762;7.000;2022-08-18T01:54:03;151169.06;;;19.15;89.96
14885;BME280;7534;50.762;7.000;2022-08-18T01:56:30;151146.66;;;19.06;89.67
14885;BME280;7534;50.762;7.000;2022-08-18T01:58:55;151180.97;;;19.20;89.06
14885;BME280;7534;50.762;7.000;2022-08-18T02:01:23;151158.56;;;19.11;88.97
14885;BME280;7534;50.762;7.000;2022-08-18T02:03:54;151140.09;;;19.04;89.00
14885;BME280;7534;50.762;7.000;2022-08-18T02:06:21;151136.16;;;19.02;89.33
14885;BME280;7534;50.762;7.000;2022-08-18T02:08:47;151145.34;;;19.06;89.63
14885;BME280;7534;50.762;7.000;2022-08-18T02:11:14;151096.63;;;18.87;90.18
14885;BME280;7534;50.762;7.000;2022-08-18T02:13:40;151097.94;;;18.88;90.96
14885;BME280;7534;50.762;7.000;2022-08-18T02:16:07;151049.16;;;18.69;91.20
14885;BME280;7534;50.762;7.000;2022-08-18T02:18:36;151095.28;;;18.87;91.89
14885;BME280;7534;50.762;7.000;2022-08-18T02:21:13;151086.03;;;18.83;91.99
14885;BME280;7534;50.762;7.000;2022-08-18T02:23:41;151072.88;;;18.78;91.95
14885;BME280;7534;50.762;7.000;2022-08-18T02:26:11;151047.84;;;18.68;91.88
14885;BME280;7534;50.762;7.000;2022-08-18T02:28:38;151058.41;;;18.73;92.48
14885;BME280;7534;50.762;7.000;2022-08-18T02:31:12;151064.97;;;18.75;92.50
14885;BME280;7534;50.762;7.000;2022-08-18T02:33:39;151026.75;;;18.60;93.54
14885;BME280;7534;50.762;7.000;2022-08-18T02:36:06;150913.41;;;18.17;94.36
14885;BME280;7534;50.762;7.000;2022-08-18T02:38:32;151022.81;;;18.59;94.23
14885;BME280;7534;50.762;7.000;2022-08-18T02:41:03;150974.03;;;18.40;94.73
14885;BME280;7534;50.762;7.000;2022-08-18T02:43:31;151012.22;;;18.55;94.65
14885;BME280;7534;50.762;7.000;2022-08-18T02:45:57;150997.69;;;18.49;94.82
14885;BME280;7534;50.762;7.000;2022-08-18T02:48:23;150927.91;;;18.22;95.36
14885;BME280;7534;50.762;7.000;2022-08-18T02:51:12;150964.78;;;18.37;95.74
14885;BME280;7534;50.762;7.000;2022-08-18T02:53:41;150993.78;;;18.48;95.57
14885;BME280;7534;50.762;7.000;2022-08-18T02:56:19;150960.84;;;18.35;96.37
14885;BME280;7534;50.762;7.000;2022-08-18T02:59:02;150971.41;;;18.39;97.16
14885;BME280;7534;50.762;7.000;2022-08-18T03:01:35;150967.44;;;18.38;97.95
14885;BME280;7534;50.762;7.000;2022-08-18T03:04:04;150923.97;;;18.21;98.11
14885;BME280;7534;50.762;7.000;2022-08-18T03:06:34;150972.72;;;18.40;98.54
14885;BME280;7534;50.762;7.000;2022-08-18T03:09:02;150970.06;;;18.39;98.99
14885;BME280;7534;50.762;7.000;2022-08-18T03:11:28;150971.41;;;18.39;99.49
14885;BME280;7534;50.762;7.000;2022-08-18T03:13:56;150951.63;;;18.32;100.00
14885;BME280;7534;50.762;7.000;2022-08-18T03:16:22;150950.31;;;18.31;100.00
14885;BME280;7534;50.762;7.000;2022-08-18T03:18:51;150892.34;;;18.09;100.00
14885;BME280;7534;50.762;7.000;2022-08-18T03:21:22;150939.75;;;18.27;100.00
14885;BME280;7534;50.762;7.000;2022-08-18T03:23:51;150933.16;;;18.24;100.00
14885;BME280;7534;50.762;7.000;2022-08-18T03:26:18;150916.03;;;18.18;100.00
14885;BME280;7534;50.762;7.000;2022-08-18T03:28:48;150949.00;;;18.30;100.00
14885;BME280;7534;50.762;7.000;2022-08-18T03:31:16;150949.00;;;18.30;100.00
14885;BME280;7534;50.762;7.000;2022-08-18T03:33:44;150952.97;;;18.32;100.00
14885;BME280;7534;50.762;7.000;2022-08-18T03:36:19;150938.44;;;18.26;100.00
14885;BME280;7534;50.762;7.000;2022-08-18T03:38:46;150984.56;;;18.44;100.00
14885;BME280;7534;50.762;7.000;2022-08-18T03:41:15;150997.69;;;18.49;100.00
14885;BME280;7534;50.762;7.000;2022-08-18T03:43:42;150967.44;;;18.38;100.00
14885;BME280;7534;50.762;7.000;2022-08-18T03:46:13;150987.19;;;18.45;100.00
14885;BME280;7534;50.762;7.000;2022-08-18T03:48:42;150960.84;;;18.35;100.00
14885;BME280;7534;50.762;7.000;2022-08-18T03:53:44;151000.34;;;18.50;100.00
14885;BME280;7534;50.762;7.000;2022-08-18T03:56:19;150949.00;;;18.30;100.00
14885;BME280;7534;50.762;7.000;2022-08-18T03:58:49;150971.41;;;18.39;100.00
14885;BME280;7534;50.762;7.000;2022-08-18T04:01:19;151014.88;;;18.56;100.00
14885;BME280;7534;50.762;7.000;2022-08-18T04:03:50;151021.47;;;18.58;100.00
14885;BME280;7534;50.762;7.000;2022-08-18T04:06:18;151026.75;;;18.60;100.00
14885;BME280;7534;50.762;7.000;2022-08-18T04:08:44;150975.31;;;18.41;99.79
14885;BME280;7534;50.762;7.000;2022-08-18T04:11:11;151014.88;;;18.56;99.44
14885;BME280;7534;50.762;7.000;2022-08-18T04:13:39;150995.13;;;18.48;98.82
14885;BME280;7534;50.762;7.000;2022-08-18T04:16:05;150996.38;;;18.49;98.95
14885;BME280;7534;50.762;7.000;2022-08-18T04:18:31;150975.31;;;18.41;99.05
14885;BME280;7534;50.762;7.000;2022-08-18T04:21:05;151020.16;;;18.58;99.19
14885;BME280;7534;50.762;7.000;2022-08-18T04:23:36;151059.69;;;18.73;99.31
14885;BME280;7534;50.762;7.000;2022-08-18T04:26:05;151075.53;;;18.79;99.15
14885;BME280;7534;50.762;7.000;2022-08-18T04:28:31;151092.66;;;18.86;98.23
14885;BME280;7534;50.762;7.000;2022-08-18T04:30:57;151097.94;;;18.88;97.54
14885;BME280;7534;50.762;7.000;2022-08-18T04:33:27;151097.94;;;18.88;96.70
14885;BME280;7534;50.762;7.000;2022-08-18T04:35:54;151130.88;;;19.00;96.21
14885;BME280;7534;50.762;7.000;2022-08-18T04:38:21;151076.84;;;18.80;95.52
14885;BME280;7534;50.762;7.000;2022-08-18T04:40:47;151158.56;;;19.11;95.26
14885;BME280;7534;50.762;7.000;2022-08-18T04:43:13;151190.16;;;19.23;94.73
14885;BME280;7534;50.762;7.000;2022-08-18T04:45:41;151219.19;;;19.34;94.41
14885;BME280;7534;50.762;7.000;2022-08-18T04:48:09;151211.25;;;19.31;94.05
14885;BME280;7534;50.762;7.000;2022-08-18T04:50:37;151262.75;;;19.51;93.83
14885;BME280;7534;50.762;7.000;2022-08-18T04:53:04;151275.91;;;19.56;93.29
14885;BME280;7534;50.762;7.000;2022-08-18T04:55:51;151229.69;;;19.38;92.12
14885;BME280;7534;50.762;7.000;2022-08-18T04:58:19;151240.28;;;19.42;90.84
14885;BME280;7534;50.762;7.000;2022-08-18T05:00:45;151275.91;;;19.56;88.72
14885;BME280;7534;50.762;7.000;2022-08-18T05:03:12;151250.81;;;19.47;87.58
14885;BME280;7534;50.762;7.000;2022-08-18T05:05:38;151233.66;;;19.40;86.21
14885;BME280;7534;50.762;7.000;2022-08-18T05:08:04;151215.22;;;19.33;85.33
14885;BME280;7534;50.762;7.000;2022-08-18T05:10:30;151206.03;;;19.29;85.31
14885;BME280;7534;50.762;7.000;2022-08-18T05:12:56;151154.59;;;19.10;85.83
14885;BME280;7534;50.762;7.000;2022-08-18T05:15:22;151213.91;;;19.32;85.83
14885;BME280;7534;50.762;7.000;2022-08-18T05:17:47;151166.44;;;19.14;85.42
14885;BME280;7534;50.762;7.000;2022-08-18T05:20:13;151241.59;;;19.43;85.61
14885;BME280;7534;50.762;7.000;2022-08-18T05:22:41;151260.09;;;19.50;84.74
14885;BME280;7534;50.762;7.000;2022-08-18T05:25:10;151262.75;;;19.51;85.12
14885;BME280;7534;50.762;7.000;2022-08-18T05:27:41;151254.81;;;19.48;84.75
14885;BME280;7534;50.762;7.000;2022-08-18T05:30:09;151320.75;;;19.73;84.34
14885;BME280;7534;50.762;7.000;2022-08-18T05:32:42;151332.66;;;19.78;84.32
14885;BME280;7534;50.762;7.000;2022-08-18T05:35:17;151333.91;;;19.78;84.03
14885;BME280;7534;50.762;7.000;2022-08-18T05:40:13;151411.78;;;20.08;83.66
14885;BME280;7534;50.762;7.000;2022-08-18T05:42:41;151430.25;;;20.15;83.69
14885;BME280;7534;50.762;7.000;2022-08-18T05:45:22;151428.91;;;20.15;84.01
14885;BME280;7534;50.762;7.000;2022-08-18T05:47:48;151479.13;;;20.34;83.38
14885;BME280;7534;50.762;7.000;2022-08-18T05:50:18;151490.97;;;20.39;82.87
14885;BME280;7534;50.762;7.000;2022-08-18T05:52:57;151517.38;;;20.49;82.39
14885;BME280;7534;50.762;7.000;2022-08-18T05:55:34;151556.94;;;20.64;82.14
14885;BME280;7534;50.762;7.000;2022-08-18T05:58:25;151505.47;;;20.44;82.06
14885;BME280;7534;50.762;7.000;2022-08-18T06:01:03;151558.28;;;20.65;82.06
14885;BME280;7534;50.762;7.000;2022-08-18T06:03:53;151533.19;;;20.55;81.87
14885;BME280;7534;50.762;7.000;2022-08-18T06:06:25;151537.16;;;20.56;82.32
14885;BME280;7534;50.762;7.000;2022-08-18T06:09:20;151497.56;;;20.41;82.99
14885;BME280;7534;50.762;7.000;2022-08-18T06:11:49;151432.88;;;20.16;83.70
14885;BME280;7534;50.762;7.000;2022-08-18T06:14:15;151490.97;;;20.39;85.23
14885;BME280;7534;50.762;7.000;2022-08-18T06:17:00;151477.78;;;20.34;86.85
14885;BME280;7534;50.762;7.000;2022-08-18T06:19:51;151448.69;;;20.23;88.59
14885;BME280;7534;50.762;7.000;2022-08-18T06:25:36;151384.06;;;19.98;91.39
14885;BME280;7534;50.762;7.000;2022-08-18T06:28:15;151361.63;;;19.89;92.45
14885;BME280;7534;50.762;7.000;2022-08-18T06:36:36;151361.63;;;19.89;94.01
14885;BME280;7534;50.762;7.000;2022-08-18T06:39:30;151370.88;;;19.93;93.81
14885;BME280;7534;50.762;7.000;2022-08-18T06:41:59;151365.59;;;19.91;93.96
14885;BME280;7534;50.762;7.000;2022-08-18T06:44:29;151340.53;;;19.81;94.01
14885;BME280;7534;50.762;7.000;2022-08-18T06:47:03;151319.44;;;19.73;94.07
14885;BME280;7534;50.762;7.000;2022-08-18T06:49:43;151406.47;;;20.06;93.72
14885;BME280;7534;50.762;7.000;2022-08-18T06:52:55;151415.75;;;20.10;93.49
14885;BME280;7534;50.762;7.000;2022-08-18T06:58:05;151447.38;;;20.22;91.84
14885;BME280;7534;50.762;7.000;2022-08-18T07:00:36;151479.13;;;20.34;90.77
14885;BME280;7534;50.762;7.000;2022-08-18T07:03:20;151444.72;;;20.21;90.51
14885;BME280;7534;50.762;7.000;2022-08-18T07:06:07;151469.81;;;20.31;90.76
14885;BME280;7534;50.762;7.000;2022-08-18T07:08:38;151492.28;;;20.39;90.27
14885;BME280;7534;50.762;7.000;2022-08-18T07:11:31;151382.72;;;19.97;91.00
14885;BME280;7534;50.762;7.000;2022-08-18T07:14:20;151439.44;;;20.19;90.34
14885;BME280;7534;50.762;7.000;2022-08-18T07:16:47;151431.56;;;20.16;89.74
14885;BME280;7534;50.762;7.000;2022-08-18T07:19:19;151432.88;;;20.16;90.19
14885;BME280;7534;50.762;7.000;2022-08-18T07:21:59;151435.53;;;20.17;90.50
14885;BME280;7534;50.762;7.000;2022-08-18T07:24:31;151473.78;;;20.32;90.03
14885;BME280;7534;50.762;7.000;2022-08-18T07:27:10;151465.84;;;20.29;89.20
14885;BME280;7534;50.762;7.000;2022-08-18T07:30:07;151521.34;;;20.50;88.73
14885;BME280;7534;50.762;7.000;2022-08-18T07:32:56;151575.41;;;20.71;87.58
14885;BME280;7534;50.762;7.000;2022-08-18T07:35:40;151603.16;;;20.82;86.33
14885;BME280;7534;50.762;7.000;2022-08-18T07:38:30;151651.97;;;21.01;85.44
14885;BME280;7534;50.762;7.000;2022-08-18T07:41:13;151658.56;;;21.03;84.26
14885;BME280;7534;50.762;7.000;2022-08-18T07:46:44;151700.88;;;21.19;82.52
14885;BME280;7534;50.762;7.000;2022-08-18T07:49:20;151745.75;;;21.37;81.90
14885;BME280;7534;50.762;7.000;2022-08-18T07:52:01;151797.28;;;21.56;81.57
14885;BME280;7534;50.762;7.000;2022-08-18T07:54:46;151822.34;;;21.66;80.20
14885;BME280;7534;50.762;7.000;2022-08-18T08:00:23;151871.22;;;21.85;79.28
14885;BME280;7534;50.762;7.000;2022-08-18T08:03:24;151936.00;;;22.10;78.50
14885;BME280;7534;50.762;7.000;2022-08-18T08:16:50;152179.22;;;23.03;72.56
14885;BME280;7534;50.762;7.000;2022-08-18T08:22:17;152327.38;;;23.59;71.52
14885;BME280;7534;50.762;7.000;2022-08-18T08:25:25;152418.66;;;23.94;69.78
14885;BME280;7534;50.762;7.000;2022-08-18T08:28:22;152373.69;;;23.77;68.52
14885;BME280;7534;50.762;7.000;2022-08-18T08:31:11;152417.34;;;23.94;68.30
14885;BME280;7534;50.762;7.000;2022-08-18T08:34:13;152521.91;;;24.34;68.03
14885;BME280;7534;50.762;7.000;2022-08-18T08:36:44;152570.91;;;24.53;66.03
14885;BME280;7534;50.762;7.000;2022-08-18T08:39:30;152623.81;;;24.73;64.37
14885;BME280;7534;50.762;7.000;2022-08-18T08:42:23;152593.41;;;24.61;63.70
14885;BME280;7534;50.762;7.000;2022-08-18T08:44:56;152651.63;;;24.84;63.49
14885;BME280;7534;50.762;7.000;2022-08-18T08:47:40;152707.31;;;25.05;62.86
14885;BME280;7534;50.762;7.000;2022-08-18T08:50:17;152761.59;;;25.26;62.36
14885;BME280;7534;50.762;7.000;2022-08-18T08:53:17;152749.69;;;25.21;61.90
14885;BME280;7534;50.762;7.000;2022-08-18T08:55:54;152777.47;;;25.32;61.56
14885;BME280;7534;50.762;7.000;2022-08-18T08:58:57;152842.38;;;25.57;61.35
14885;BME280;7534;50.762;7.000;2022-08-18T09:13:54;152949.75;;;25.98;59.04
14885;BME280;7534;50.762;7.000;2022-08-18T09:17:14;152882.16;;;25.72;59.26
14885;BME280;7534;50.762;7.000;2022-08-18T09:20:17;152912.66;;;25.83;59.73
14885;BME280;7534;50.762;7.000;2022-08-18T09:25:54;152803.97;;;25.42;60.77
14885;BME280;7534;50.762;7.000;2022-08-18T09:37:15;152801.31;;;25.41;61.10
14885;BME280;7534;50.762;7.000;2022-08-18T09:39:58;152792.06;;;25.37;61.62
14885;BME280;7534;50.762;7.000;2022-08-18T09:42:57;152793.34;;;25.38;60.67
14885;BME280;7534;50.762;7.000;2022-08-18T09:47:59;153038.59;;;26.32;57.76
14885;BME280;7534;50.762;7.000;2022-08-18T09:52:54;153279.94;;;27.24;54.69
14885;BME280;7534;50.762;7.000;2022-08-18T10:01:30;153287.88;;;27.27;54.82
14885;BME280;7534;50.762;7.000;2022-08-18T10:04:23;153216.28;;;27.00;54.51
14885;BME280;7534;50.762;7.000;2022-08-18T10:06:50;153256.06;;;27.15;55.21
14885;BME280;7534;50.762;7.000;2022-08-18T10:09:45;153218.91;;;27.01;54.97
14885;BME280;7534;50.762;7.000;2022-08-18T10:15:39;153218.91;;;27.01;54.22
14885;BME280;7534;50.762;7.000;2022-08-18T10:21:29;153392.69;;;27.67;52.67
14885;BME280;7534;50.762;7.000;2022-08-18T10:34:49;153431.16;;;27.82;51.10
14885;BME280;7534;50.762;7.000;2022-08-18T10:37:38;153413.94;;;27.75;52.14
14885;BME280;7534;50.762;7.000;2022-08-18T10:42:50;153242.78;;;27.10;52.97
14885;BME280;7534;50.762;7.000;2022-08-18T10:45:30;153208.31;;;26.96;52.96
14885;BME280;7534;50.762;7.000;2022-08-18T10:48:14;153185.72;;;26.88;54.00
14885;BME280;7534;50.762;7.000;2022-08-18T10:51:28;153207.00;;;26.96;53.50
14885;BME280;7534;50.762;7.000;2022-08-18T10:57:24;153306.44;;;27.34;52.41
14885;BME280;7534;50.762;7.000;2022-08-18T11:00:08;153425.91;;;27.80;50.85
14885;BME280;7534;50.762;7.000;2022-08-18T11:03:11;153585.16;;;28.40;49.09
14885;BME280;7534;50.762;7.000;2022-08-18T11:05:40;153696.72;;;28.83;47.44
14885;BME280;7534;50.762;7.000;2022-08-18T11:08:13;153751.16;;;29.04;46.38
14885;BME280;7534;50.762;7.000;2022-08-18T11:10:43;153695.41;;;28.82;46.44
14885;BME280;7534;50.762;7.000;2022-08-18T11:19:37;154213.72;;;30.80;41.88
14885;BME280;7534;50.762;7.000;2022-08-18T11:22:04;154272.22;;;31.02;41.25
14885;BME280;7534;50.762;7.000;2022-08-18T11:24:31;154256.25;;;30.96;41.32
14885;BME280;7534;50.762;7.000;2022-08-18T11:27:16;154199.06;;;30.75;41.00
14885;BME280;7534;50.762;7.000;2022-08-18T11:29:43;153745.88;;;29.02;44.39
14885;BME280;7534;50.762;7.000;2022-08-18T11:32:23;153740.56;;;29.00;44.34
14885;BME280;7534;50.762;7.000;2022-08-18T11:38:10;153814.88;;;29.28;44.87
14885;BME280;7534;50.762;7.000;2022-08-18T11:40:44;153836.19;;;29.36;44.45
14885;BME280;7534;50.762;7.000;2022-08-18T11:43:18;153842.84;;;29.39;44.92
14885;BME280;7534;50.762;7.000;2022-08-18T11:45:48;153906.59;;;29.63;44.10
14885;BME280;7534;50.762;7.000;2022-08-18T11:56:25;154071.41;;;30.26;43.94
14885;BME280;7534;50.762;7.000;2022-08-18T11:59:00;153999.69;;;29.99;43.13
14885;BME280;7534;50.762;7.000;2022-08-18T12:01:33;154062.13;;;30.22;43.37
14885;BME280;7534;50.762;7.000;2022-08-18T12:04:23;154133.88;;;30.50;43.74
14885;BME280;7534;50.762;7.000;2022-08-18T12:06:58;154137.91;;;30.51;42.81
14885;BME280;7534;50.762;7.000;2022-08-18T12:09:45;154047.47;;;30.17;43.06
14885;BME280;7534;50.762;7.000;2022-08-18T12:12:30;153979.69;;;29.91;43.09
14885;BME280;7534;50.762;7.000;2022-08-18T12:17:38;153759.13;;;29.07;45.36
14885;BME280;7534;50.762;7.000;2022-08-18T12:20:04;153642.22;;;28.62;46.55
14885;BME280;7534;50.762;7.000;2022-08-18T12:22:34;153534.75;;;28.21;47.88
14885;BME280;7534;50.762;7.000;2022-08-18T12:25:03;153481.59;;;28.01;49.19
14885;BME280;7534;50.762;7.000;2022-08-18T12:27:29;153448.47;;;27.88;48.65
14885;BME280;7534;50.762;7.000;2022-08-18T12:29:57;153456.38;;;27.91;49.64
14885;BME280;7534;50.762;7.000;2022-08-18T12:32:28;153481.59;;;28.01;49.12
14885;BME280;7534;50.762;7.000;2022-08-18T12:34:54;153482.94;;;28.01;49.18
14885;BME280;7534;50.762;7.000;2022-08-18T12:37:24;153496.19;;;28.06;49.14
14885;BME280;7534;50.762;7.000;2022-08-18T12:39:52;153553.34;;;28.28;48.57
14885;BME280;7534;50.762;7.000;2022-08-18T12:42:18;153659.53;;;28.69;47.99
14885;BME280;7534;50.762;7.000;2022-08-18T12:44:45;153787.03;;;29.17;47.26
14885;BME280;7534;50.762;7.000;2022-08-18T12:47:20;153833.53;;;29.35;45.70
14885;BME280;7534;50.762;7.000;2022-08-18T12:49:47;153958.44;;;29.83;44.70
14885;BME280;7534;50.762;7.000;2022-08-18T12:52:16;154039.53;;;30.14;44.37
14885;BME280;7534;50.762;7.000;2022-08-18T12:54:42;154023.59;;;30.08;43.21
14885;BME280;7534;50.762;7.000;2022-08-18T12:57:18;153994.34;;;29.96;42.96
14885;BME280;7534;50.762;7.000;2022-08-18T12:59:44;153931.84;;;29.73;43.50
14885;BME280;7534;50.762;7.000;2022-08-18T13:02:11;153989.03;;;29.94;44.00
14885;BME280;7534;50.762;7.000;2022-08-18T13:04:37;154008.94;;;30.02;42.94
14885;BME280;7534;50.762;7.000;2022-08-18T13:07:03;153931.84;;;29.73;44.02
14885;BME280;7534;50.762;7.000;2022-08-18T13:09:32;153929.19;;;29.72;43.74
14885;BME280;7534;50.762;7.000;2022-08-18T13:11:58;153998.34;;;29.98;44.04
14885;BME280;7534;50.762;7.000;2022-08-18T13:14:24;154011.63;;;30.03;42.57
14885;BME280;7534;50.762;7.000;2022-08-18T13:16:49;153861.44;;;29.46;43.33
14885;BME280;7534;50.762;7.000;2022-08-18T13:19:16;153885.34;;;29.55;43.03
14885;BME280;7534;50.762;7.000;2022-08-18T13:21:42;153858.78;;;29.45;43.68
14885;BME280;7534;50.762;7.000;2022-08-18T13:24:09;153947.78;;;29.79;43.12
14885;BME280;7534;50.762;7.000;2022-08-18T13:26:42;154038.22;;;30.13;42.78
14885;BME280;7534;50.762;7.000;2022-08-18T13:29:09;154102.00;;;30.38;41.52
14885;BME280;7534;50.762;7.000;2022-08-18T13:31:35;154127.25;;;30.47;41.18
14885;BME280;7534;50.762;7.000;2022-08-18T13:34:03;154165.84;;;30.62;40.59
14885;BME280;7534;50.762;7.000;2022-08-18T13:36:32;154048.81;;;30.17;41.48
14885;BME280;7534;50.762;7.000;2022-08-18T13:39:13;154070.06;;;30.25;40.97
14885;BME280;7534;50.762;7.000;2022-08-18T13:41:39;154136.59;;;30.51;41.54
14885;BME280;7534;50.762;7.000;2022-08-18T13:44:07;154201.72;;;30.76;40.67
14885;BME280;7534;50.762;7.000;2022-08-18T13:46:32;154220.34;;;30.83;41.23
14885;BME280;7534;50.762;7.000;2022-08-18T13:48:58;154249.59;;;30.94;39.86
14885;BME280;7534;50.762;7.000;2022-08-18T13:51:27;154249.59;;;30.94;39.86
14885;BME280;7534;50.762;7.000;2022-08-18T13:53:53;154256.25;;;30.96;39.90
14885;BME280;7534;50.762;7.000;2022-08-18T13:56:18;154325.44;;;31.23;39.71
14885;BME280;7534;50.762;7.000;2022-08-18T13:58:45;154286.88;;;31.08;40.65
14885;BME280;7534;50.762;7.000;2022-08-18T14:01:12;154288.19;;;31.08;39.57
14885;BME280;7534;50.762;7.000;2022-08-18T14:03:38;154270.88;;;31.02;40.63
14885;BME280;7534;50.762;7.000;2022-08-18T14:06:04;154270.88;;;31.02;40.32
14885;BME280;7534;50.762;7.000;2022-08-18T14:08:30;154213.72;;;30.80;40.26
14885;BME280;7534;50.762;7.000;2022-08-18T14:11:00;154117.94;;;30.44;40.81
14885;BME280;7534;50.762;7.000;2022-08-18T14:13:28;154074.06;;;30.27;41.83
14885;BME280;7534;50.762;7.000;2022-08-18T14:15:56;154078.06;;;30.28;41.10
14885;BME280;7534;50.762;7.000;2022-08-18T14:18:24;154082.06;;;30.30;41.89
14885;BME280;7534;50.762;7.000;2022-08-18T14:20:51;154102.00;;;30.38;41.55
14885;BME280;7534;50.762;7.000;2022-08-18T14:23:35;154113.94;;;30.42;40.74
14885;BME280;7534;50.762;7.000;2022-08-18T14:26:20;154030.22;;;30.10;41.53
14885;BME280;7534;50.762;7.000;2022-08-18T14:29:04;153933.19;;;29.73;42.53
14885;BME280;7534;50.762;7.000;2022-08-18T14:31:31;153941.13;;;29.76;42.94
14885;BME280;7534;50.762;7.000;2022-08-18T14:33:57;153938.53;;;29.75;42.40
14885;BME280;7534;50.762;7.000;2022-08-18T14:36:23;153937.19;;;29.75;42.39
14885;BME280;7534;50.762;7.000;2022-08-18T14:38:49;153921.22;;;29.69;43.51
14885;BME280;7534;50.762;7.000;2022-08-18T14:41:16;153914.59;;;29.66;42.35
14885;BME280;7534;50.762;7.000;2022-08-18T14:43:42;153838.84;;;29.37;42.21
14885;BME280;7534;50.762;7.000;2022-08-18T14:46:10;153876.03;;;29.51;42.53
14885;BME280;7534;50.762;7.000;2022-08-18T14:48:37;153926.53;;;29.71;42.10
14885;BME280;7534;50.762;7.000;2022-08-18T14:51:03;153957.13;;;29.82;41.50
14885;BME280;7534;50.762;7.000;2022-08-18T14:53:32;153946.47;;;29.78;41.92
14885;BME280;7534;50.762;7.000;2022-08-18T14:56:03;153975.69;;;29.89;41.84
14885;BME280;7534;50.762;7.000;2022-08-18T14:58:31;153921.22;;;29.69;41.12
14885;BME280;7534;50.762;7.000;2022-08-18T15:01:02;153959.78;;;29.83;40.86
14885;BME280;7534;50.762;7.000;2022-08-18T15:03:30;153993.03;;;29.96;41.69
14885;BME280;7534;50.762;7.000;2022-08-18T15:05:58;154026.22;;;30.09;40.91
14885;BME280;7534;50.762;7.000;2022-08-18T15:08:24;154058.13;;;30.21;42.62
14885;BME280;7534;50.762;7.000;2022-08-18T15:10:49;154133.88;;;30.50;40.56
14885;BME280;7534;50.762;7.000;2022-08-18T15:13:15;154147.25;;;30.55;40.87
14885;BME280;7534;50.762;7.000;2022-08-18T15:15:41;154074.06;;;30.27;40.08
14885;BME280;7534;50.762;7.000;2022-08-18T15:18:09;154047.47;;;30.17;40.31
14885;BME280;7534;50.762;7.000;2022-08-18T15:20:36;153957.13;;;29.82;42.60
14885;BME280;7534;50.762;7.000;2022-08-18T15:23:22;153898.63;;;29.60;41.37
14885;BME280;7534;50.762;7.000;2022-08-18T15:26:06;153869.44;;;29.49;41.75